KGCC/GCC METAR and TAF weather

Enter ICAO airport designator
Station Type Date Time Source
KGCC METAR 2020/09/28 09:53 UTC NOAA

KGCC 280953Z AUTO 28011KT 10SM BKN080 04/M01 A3035 RMK AO2 SLP284 T00391011


Station Type Date Time Source
KGCC Decoded METAR 2020/09/28 09:53 UTC NOAA

GILLETTE-CAMPBELL CTY AIRPORT , WY, United States (KGCC) 44-20N 105-33W 1320M
Sep 28, 2020 - 05:53 AM EDT / 2020.09.28 0953 UTC
Wind: from the W (280 degrees) at 13 MPH (11 KT):0
Visibility: 10 mile(s):0
Sky conditions: mostly cloudy
Temperature: 39.0 F (3.9 C)
Dew Point: 30.0 F (-1.1 C)
Relative Humidity: 69%
Pressure (altimeter): 30.35 in. Hg (1027 hPa)
ob: KGCC 280953Z AUTO 28011KT 10SM BKN080 04/M01 A3035 RMK AO2 SLP284 T00391011
cycle: 10

Station Type Date Time Source
KGCC TAF 2020/09/28 06:22 UTC NOAA

TAF KGCC 280520Z 2806/2906 28007KT P6SM SCT100
FM281500 33015G25KT P6SM SKC
AMD NOT SKED 2806/2809

Example: see airport list